.
WxDataArchive / Data Records for 2010-08-19
2010-08-18 August 2010 2010-08-20

Data Records for Thursday, 19 August 2010

Time	Temp	Chill	HIndex	Humid	Dewpt	 Wind 	HiWind	WindDir	Rain 	Barom 
-----	----	-----	------	-----	-----	------	------	-------	-----	----- 
00:00	67.1	67.1	67.1	83	61.8	0	0	---	0.00	29.978 
00:05	66.9	66.9	66.9	84	61.9	0	0	---	0.00	29.978 
00:10	66.8	66.8	66.8	84	61.8	0	0	---	0.00	29.978 
00:15	66.8	66.8	66.8	84	61.8	0	0	---	0.00	29.970 
00:20	66.6	66.6	66.6	84	61.6	0	0	---	0.00	29.970 
00:25	66.4	66.4	66.4	85	61.7	0	0	---	0.00	29.970 
00:30	66.3	66.3	66.3	85	61.6	0	0	---	0.00	29.970 
00:35	66.1	66.1	66.1	85	61.5	0	0	---	0.00	29.970 
00:40	66.0	66.0	66.0	85	61.4	0	0	---	0.00	29.970 
00:45	66.0	66.0	66.0	85	61.4	0	0	---	0.00	29.969 
00:50	65.8	65.8	65.8	86	61.5	0	0	---	0.00	29.969 
00:55	65.6	65.6	65.6	86	61.3	0	0	---	0.00	29.969 
01:00	65.5	65.5	65.5	87	61.5	0	0	---	0.00	29.968 
01:05	65.5	65.5	65.5	87	61.5	0	0	---	0.00	29.968 
01:10	65.5	65.5	65.5	87	61.5	0	0	---	0.00	29.968 
01:15	65.3	65.3	65.3	87	61.3	0	0	---	0.00	29.968 
01:20	65.2	65.2	65.2	87	61.2	0	0	---	0.00	29.968 
01:25	65.2	65.2	65.2	88	61.6	0	0	---	0.00	29.968 
01:30	65.0	65.0	65.0	88	61.4	0	0	---	0.00	29.963 
01:35	65.0	65.0	65.0	88	61.4	0	0	---	0.00	29.963 
01:40	64.8	64.8	64.8	88	61.2	0	0	---	0.00	29.963 
01:45	64.7	64.7	64.7	88	61.1	0	0	---	0.00	29.958 
01:50	64.7	64.7	64.7	88	61.1	0	0	---	0.00	29.958 
01:55	64.5	64.5	64.5	89	61.2	0	0	---	0.00	29.958 
02:00	64.5	64.5	64.5	89	61.2	0	0	---	0.00	29.959 
02:05	64.3	64.3	64.3	89	61.0	0	0	---	0.00	29.959 
02:10	64.3	64.3	64.3	90	61.3	0	0	---	0.00	29.959 
02:15	64.2	64.2	64.2	90	61.2	0	0	---	0.00	29.958 
02:20	64.2	64.2	64.2	90	61.2	0	0	---	0.00	29.958 
02:25	64.2	64.2	64.2	90	61.2	0	0	---	0.00	29.958 
02:30	64.2	64.2	64.2	91	61.5	0	0	---	0.00	29.955 
02:35	64.0	64.0	64.0	91	61.3	0	0	---	0.00	29.955 
02:40	64.0	64.0	64.0	91	61.3	0	0	---	0.00	29.955 
02:45	63.9	63.9	63.9	91	61.2	0	0	---	0.00	29.952 
02:50	63.9	63.9	63.9	91	61.2	0	0	---	0.00	29.952 
02:55	63.7	63.7	63.7	91	61.0	0	0	---	0.00	29.952 
03:00	63.7	63.7	63.7	91	61.0	0	0	---	0.00	29.951 
03:05	63.5	63.5	63.5	91	60.8	0	0	---	0.00	29.951 
03:10	63.4	63.4	63.4	91	60.7	0	0	---	0.00	29.951 
03:15	63.4	63.4	63.4	92	61.0	0	0	---	0.00	29.949 
03:20	63.2	63.2	63.2	92	60.8	0	0	---	0.00	29.949 
03:25	63.2	63.2	63.2	92	60.8	0	0	---	0.00	29.949 
03:30	63.1	63.1	63.1	92	60.7	0	0	---	0.00	29.949 
03:35	63.1	63.1	63.1	92	60.7	0	0	---	0.00	29.949 
03:40	62.9	62.9	62.9	92	60.5	0	0	---	0.00	29.949 
03:45	62.9	62.9	62.9	92	60.5	0	0	---	0.00	29.940 
03:50	62.9	62.9	62.9	92	60.5	0	0	---	0.00	29.940 
03:55	62.7	62.7	62.7	92	60.3	0	0	---	0.00	29.940 
04:00	62.7	62.7	62.7	93	60.6	0	0	---	0.00	29.941 
04:05	62.6	62.6	62.6	93	60.5	0	0	---	0.00	29.941 
04:10	62.6	62.6	62.6	93	60.5	0	0	---	0.00	29.941 
04:15	62.4	62.4	62.4	93	60.3	0	0	---	0.00	29.941 
04:20	62.3	62.3	62.3	93	60.2	0	0	---	0.00	29.941 
04:25	62.3	62.3	62.3	93	60.2	0	0	---	0.00	29.941 
04:30	62.3	62.3	62.3	93	60.2	0	0	---	0.00	29.939 
04:35	62.1	62.1	62.1	93	60.0	0	0	---	0.00	29.939 
04:40	62.1	62.1	62.1	94	60.3	0	0	---	0.00	29.939 
04:45	62.1	62.1	62.1	94	60.3	0	0	---	0.00	29.935 
04:50	62.0	62.0	62.0	94	60.2	0	0	---	0.00	29.935 
04:55	62.0	62.0	62.0	94	60.2	0	0	---	0.00	29.935 
05:00	61.8	61.8	61.8	94	60.1	0	0	---	0.00	29.936 
05:05	61.8	61.8	61.8	94	60.1	0	0	---	0.00	29.936 
05:10	61.6	61.6	61.6	94	59.9	0	0	---	0.00	29.936 
05:15	61.6	61.6	61.6	94	59.9	0	0	---	0.00	29.936 
05:20	61.5	61.5	61.5	94	59.8	0	0	---	0.00	29.936 
05:25	61.5	61.5	61.5	94	59.8	0	0	---	0.00	29.936 
05:30	61.5	61.5	61.5	94	59.8	0	0	---	0.00	29.933 
05:35	61.5	61.5	61.5	94	59.8	0	0	---	0.00	29.933 
05:40	61.3	61.3	61.3	94	59.6	0	0	---	0.00	29.933 
05:45	61.3	61.3	61.3	94	59.6	0	0	---	0.00	29.930 
05:50	61.2	61.2	61.2	94	59.5	0	0	---	0.00	29.930 
05:55	61.2	61.2	61.2	94	59.5	0	0	---	0.00	29.930 
06:00	61.3	61.3	61.3	94	59.6	0	0	---	0.00	29.934 
06:05	61.2	61.2	61.2	95	59.8	0	0	---	0.00	29.934 
06:10	61.2	61.2	61.2	95	59.8	0	0	---	0.00	29.934 
06:15	61.5	61.5	61.5	95	60.1	0	0	---	0.00	29.935 
06:20	61.6	61.6	61.6	95	60.2	0	0	---	0.00	29.935 
06:25	61.5	61.5	61.5	95	60.1	0	0	---	0.00	29.935 
06:30	61.5	61.5	61.5	95	60.1	0	0	---	0.00	29.936 
06:35	61.3	61.3	61.3	95	59.9	0	0	---	0.00	29.936 
06:40	61.3	61.3	61.3	95	59.9	0	0	---	0.00	29.936 
06:45	61.2	61.2	61.2	95	59.8	0	0	---	0.00	29.939 
06:50	61.3	61.3	61.3	95	59.9	0	0	---	0.00	29.939 
06:55	61.3	61.3	61.3	95	59.9	0	0	---	0.00	29.939 
07:00	61.3	61.3	61.3	95	59.9	0	0	---	0.00	29.945 
07:05	61.3	61.3	61.3	95	59.9	0	0	---	0.00	29.945 
07:10	61.3	61.3	61.3	95	59.9	0	0	---	0.00	29.945 
07:15	61.3	61.3	61.3	95	59.9	0	0	---	0.00	29.954 
07:20	61.3	61.3	61.3	95	59.9	0	0	---	0.00	29.954 
07:25	61.3	61.3	61.3	95	59.9	0	0	---	0.00	29.954 
07:30	61.5	61.5	61.5	95	60.1	0	0	---	0.00	29.956 
07:35	61.6	61.6	61.6	95	60.2	0	0	---	0.00	29.956 
07:40	61.8	61.8	61.8	95	60.3	0	0	---	0.00	29.956 
07:45	62.0	62.0	62.0	96	60.8	0	0	---	0.00	29.958 
07:50	62.3	62.3	62.3	96	61.1	0	0	---	0.00	29.958 
07:55	62.6	62.6	62.6	96	61.4	0	0	---	0.00	29.958 
08:00	63.1	63.1	63.1	96	61.9	0	0	---	0.00	29.964 
08:05	63.5	63.5	63.5	96	62.3	0	0	---	0.00	29.964 
08:10	64.3	64.3	64.3	96	63.1	0	0	---	0.00	29.964 
08:15	65.0	65.0	65.0	96	63.8	0	0	---	0.00	29.969 
08:20	65.8	65.8	65.8	96	64.6	0	0	---	0.00	29.969 
08:25	66.4	66.4	66.4	95	64.9	0	1	292	0.00	29.969 
08:30	67.4	67.4	67.4	95	65.9	0	0	---	0.00	29.968 
08:35	68.1	68.1	68.1	93	66.0	0	0	---	0.00	29.968 
08:40	68.9	68.9	68.9	90	65.8	0	0	---	0.00	29.968 
08:45	69.9	69.9	69.9	85	65.2	0	1	292	0.00	29.964 
08:50	70.9	70.9	70.9	80	64.4	0	1	292	0.00	29.964 
08:55	71.8	71.8	71.8	77	64.2	0	2	292	0.00	29.964 
09:00	72.5	72.5	72.5	74	63.7	0	1	292	0.00	29.963 
09:05	72.8	72.8	72.8	72	63.2	0	1	292	0.00	29.963 
09:10	73.3	73.3	73.3	72	63.7	0	1	292	0.00	29.963 
09:15	74.0	74.0	74.0	70	63.6	0	1	292	0.00	29.966 
09:20	74.9	74.9	74.9	68	63.6	0	1	292	0.00	29.966 
09:25	75.4	75.4	77.3	66	63.2	0	2	292	0.00	29.966 
09:30	75.8	75.8	77.7	65	63.2	0	2	292	0.00	29.964 
09:35	76.3	76.3	78.1	65	63.6	0	2	270	0.00	29.964 
09:40	76.7	76.7	78.5	62	62.7	1	2	248	0.00	29.964 
09:45	77.0	77.0	78.8	63	63.4	1	3	248	0.00	29.963 
09:50	77.6	77.6	79.3	61	63.1	0	2	248	0.00	29.963 
09:55	78.3	78.3	79.9	59	62.8	0	2	248	0.00	29.963 
10:00	78.8	78.8	80.5	60	63.7	0	2	248	0.00	29.959 
10:05	79.4	79.4	80.9	58	63.3	0	3	248	0.00	29.959 
10:10	79.6	79.6	81.0	56	62.5	1	4	90	0.00	29.959 
10:15	79.4	79.4	80.7	55	61.8	0	2	90	0.00	29.959 
10:20	79.4	79.4	80.6	54	61.3	1	2	90	0.00	29.959 
10:25	79.9	79.9	81.1	54	61.7	1	2	90	0.00	29.959 
10:30	80.1	80.1	81.2	53	61.4	1	2	315	0.00	29.962 
10:35	80.1	80.1	81.3	54	61.9	1	2	315	0.00	29.962 
10:40	80.7	80.7	81.8	53	62.0	0	2	315	0.00	29.962 
10:45	81.4	81.4	82.4	52	62.1	0	1	315	0.00	29.961 
10:50	82.0	82.0	82.8	50	61.5	0	3	315	0.00	29.961 
10:55	82.2	82.2	82.8	49	61.1	1	3	315	0.00	29.961 
11:00	82.4	82.4	83.2	50	61.9	1	3	315	0.00	29.963 
11:05	82.4	82.4	83.4	51	62.4	1	4	270	0.00	29.963 
11:10	82.6	82.6	83.4	50	62.0	1	4	248	0.00	29.963 
11:15	82.6	82.6	83.3	49	61.5	2	4	248	0.00	29.963 
11:20	82.8	82.8	83.7	50	62.2	1	5	248	0.00	29.963 
11:25	83.2	83.2	83.8	48	61.4	1	4	248	0.00	29.963 
11:30	83.6	83.6	84.6	50	63.0	1	3	248	0.00	29.963 
11:35	84.0	84.0	84.5	47	61.6	1	3	248	0.00	29.963 
11:40	84.0	84.0	84.5	47	61.6	2	4	270	0.00	29.963 
11:45	84.5	84.5	85.1	47	62.0	0	3	248	0.00	29.961 
11:50	85.1	85.1	85.7	46	62.0	1	3	338	0.00	29.961 
11:55	85.5	85.5	85.7	44	61.1	1	5	90	0.00	29.961 
12:00	85.5	85.5	85.7	44	61.1	1	3	270	0.00	29.960 
12:05	85.1	85.1	85.2	44	60.7	1	4	292	0.00	29.960 
12:10	85.3	85.3	85.5	44	60.9	1	3	292	0.00	29.960 
12:15	85.3	85.3	85.2	43	60.2	1	3	292	0.00	29.964 
12:20	85.3	85.3	84.7	40	58.2	1	3	270	0.00	29.964 
12:25	85.5	85.5	85.5	43	60.4	1	4	270	0.00	29.964 
12:30	85.9	85.9	86.0	43	60.8	1	5	270	0.00	29.957 
12:35	86.3	86.3	86.5	43	61.1	1	2	248	0.00	29.957 
12:40	86.3	86.3	86.5	43	61.1	1	4	270	0.00	29.957 
12:45	86.7	86.7	87.2	44	62.1	1	5	90	0.00	29.949 
12:50	87.4	87.4	87.4	41	60.8	1	3	270	0.00	29.949 
12:55	88.0	88.0	88.5	42	62.0	0	2	270	0.00	29.949 
13:00	88.4	88.4	88.2	39	60.3	1	3	270	0.00	29.944 
13:05	88.2	88.2	87.9	39	60.1	1	4	248	0.00	29.944 
13:10	86.3	86.3	86.0	41	59.8	2	4	292	0.00	29.944 
13:15	85.3	85.3	85.0	42	59.6	1	4	292	0.00	29.945 
13:20	84.3	84.3	84.3	44	60.0	1	3	292	0.00	29.945 
13:25	84.3	84.3	84.5	45	60.6	0	2	292	0.00	29.945 
13:30	85.5	85.5	85.5	43	60.4	0	2	292	0.00	29.933 
13:35	86.7	86.7	86.7	42	60.8	1	3	292	0.00	29.933 
13:40	87.4	87.4	87.6	42	61.5	1	3	292	0.00	29.933 
13:45	87.6	87.6	87.4	40	60.3	1	2	0	0.00	29.930 
13:50	88.0	88.0	87.6	39	59.9	1	3	0	0.00	29.930 
13:55	88.4	88.4	88.2	39	60.3	1	2	338	0.00	29.930 
14:00	87.4	87.4	87.1	40	60.1	1	3	292	0.00	29.929 
14:05	87.0	87.0	86.6	40	59.7	0	1	292	0.00	29.929 
14:10	86.7	86.7	86.3	40	59.5	1	3	270	0.00	29.929 
14:15	86.1	86.1	86.0	42	60.3	1	3	270	0.00	29.927 
14:20	85.7	85.7	85.7	43	60.6	0	0	---	0.00	29.927 
14:25	86.1	86.1	85.8	41	59.6	1	4	292	0.00	29.927 
14:30	86.1	86.1	85.8	41	59.6	1	2	292	0.00	29.928 
14:35	86.5	86.5	86.5	42	60.6	1	5	270	0.00	29.928 
14:40	86.7	86.7	86.5	41	60.1	1	3	270	0.00	29.928 
14:45	86.3	86.3	86.0	41	59.8	1	4	338	0.00	29.926 
14:50	85.9	85.9	85.7	42	60.1	1	2	338	0.00	29.926 
14:55	86.1	86.1	86.0	42	60.3	0	2	338	0.00	29.926 
15:00	86.3	86.3	86.0	41	59.8	0	1	338	0.00	29.923 
15:05	86.1	86.1	85.8	41	59.6	0	3	338	0.00	29.923 
15:10	86.5	86.5	86.0	40	59.3	1	4	338	0.00	29.923 
15:15	86.7	86.7	86.3	40	59.5	1	4	292	0.00	29.919 
15:20	86.3	86.3	85.8	40	59.1	0	2	292	0.00	29.919 
15:25	86.3	86.3	86.0	41	59.8	0	2	292	0.00	29.919 
15:30	86.7	86.7	86.7	42	60.8	1	2	292	0.00	29.916 
15:35	86.5	86.5	86.0	40	59.3	1	3	292	0.00	29.916 
15:40	87.4	87.4	87.6	42	61.5	1	2	292	0.00	29.916 
15:45	87.8	87.8	87.9	41	61.1	1	3	270	0.00	29.916 
15:50	88.2	88.2	87.9	39	60.1	2	4	270	0.00	29.916 
15:55	88.8	88.8	89.0	40	61.3	1	3	270	0.00	29.916 
16:00	89.3	89.3	89.4	39	61.0	0	3	45	0.00	29.906 
16:05	89.7	89.7	89.3	37	59.9	1	4	270	0.00	29.906 
16:10	88.6	88.6	88.2	38	59.7	1	4	270	0.00	29.906 
16:15	87.8	87.8	87.6	40	60.4	0	1	270	0.00	29.903 
16:20	87.2	87.2	87.1	41	60.6	1	4	270	0.00	29.903 
16:25	87.4	87.4	87.1	40	60.1	1	3	270	0.00	29.903 
16:30	88.0	88.0	87.9	40	60.6	1	4	270	0.00	29.902 
16:35	88.0	88.0	87.4	38	59.2	1	4	248	0.00	29.902 
16:40	88.0	88.0	87.9	40	60.6	1	4	270	0.00	29.902 
16:45	88.0	88.0	87.9	40	60.6	0	1	270	0.00	29.900 
16:50	87.8	87.8	88.5	43	62.5	1	3	338	0.00	29.900 
16:55	88.0	88.0	87.6	39	59.9	2	6	270	0.00	29.900 
17:00	88.4	88.4	88.2	39	60.3	1	2	270	0.00	29.901 
17:05	88.8	88.8	88.4	38	59.9	1	3	270	0.00	29.901 
17:10	89.0	89.0	88.7	38	60.1	1	3	270	0.00	29.901 
17:15	88.8	88.8	88.4	38	59.9	1	3	270	0.00	29.904 
17:20	88.2	88.2	87.9	39	60.1	0	2	270	0.00	29.904 
17:25	88.0	88.0	87.9	40	60.6	1	3	270	0.00	29.904 
17:30	88.2	88.2	88.2	40	60.8	1	3	270	0.00	29.901 
17:35	87.4	87.4	87.4	41	60.8	1	3	270	0.00	29.901 
17:40	86.5	86.5	86.7	43	61.3	0	1	270	0.00	29.901 
17:45	86.5	86.5	86.7	43	61.3	1	3	270	0.00	29.899 
17:50	86.7	86.7	87.0	43	61.5	1	4	292	0.00	29.899 
17:55	87.0	87.0	87.1	42	61.1	1	5	270	0.00	29.899 
18:00	87.2	87.2	87.4	42	61.3	0	3	135	0.00	29.900 
18:05	87.0	87.0	87.1	42	61.1	1	3	202	0.00	29.900 
18:10	86.7	86.7	87.0	43	61.5	1	3	0	0.00	29.900 
18:15	86.5	86.5	86.5	42	60.6	1	2	248	0.00	29.901 
18:20	86.5	86.5	86.7	43	61.3	0	2	248	0.00	29.901 
18:25	86.5	86.5	86.7	43	61.3	1	4	248	0.00	29.901 
18:30	86.3	86.3	86.7	44	61.8	1	2	248	0.00	29.897 
18:35	86.3	86.3	86.7	44	61.8	1	4	248	0.00	29.897 
18:40	86.1	86.1	86.5	44	61.6	1	2	248	0.00	29.897 
18:45	85.9	85.9	86.2	44	61.4	0	2	248	0.00	29.897 
18:50	85.7	85.7	86.0	44	61.2	0	2	248	0.00	29.897 
18:55	85.5	85.5	85.9	45	61.7	0	3	248	0.00	29.897 
19:00	85.5	85.5	85.7	44	61.1	0	2	248	0.00	29.900 
19:05	85.3	85.3	85.7	45	61.5	1	3	248	0.00	29.900 
19:10	85.3	85.3	85.7	45	61.5	1	2	248	0.00	29.900 
19:15	85.1	85.1	85.4	45	61.3	1	4	248	0.00	29.900 
19:20	84.9	84.9	85.2	45	61.2	0	1	270	0.00	29.900 
19:25	84.7	84.7	85.2	46	61.6	0	3	270	0.00	29.900 
19:30	84.5	84.5	84.7	45	60.8	1	3	270	0.00	29.899 
19:35	84.3	84.3	84.5	45	60.6	0	1	270	0.00	29.899 
19:40	84.0	84.0	84.3	46	61.0	0	1	270	0.00	29.899 
19:45	83.8	83.8	84.1	46	60.8	0	2	270	0.00	29.902 
19:50	83.8	83.8	84.3	47	61.4	1	3	270	0.00	29.902 
19:55	83.6	83.6	84.1	47	61.2	0	1	270	0.00	29.902 
20:00	83.2	83.2	83.6	47	60.8	0	1	270	0.00	29.906 
20:05	83.0	83.0	83.5	48	61.3	0	1	270	0.00	29.906 
20:10	82.8	82.8	83.5	49	61.7	0	1	270	0.00	29.906 
20:15	82.6	82.6	83.3	49	61.5	0	1	270	0.00	29.898 
20:20	82.4	82.4	83.2	50	61.9	0	0	---	0.00	29.898 
20:25	82.0	82.0	82.8	50	61.5	0	0	---	0.00	29.898 
20:30	81.4	81.4	82.3	51	61.5	0	1	270	0.00	29.894 
20:35	81.1	81.1	82.1	52	61.8	0	0	---	0.00	29.894 
20:40	80.9	80.9	82.0	53	62.1	0	0	---	0.00	29.894 
20:45	80.3	80.3	81.4	53	61.6	0	0	---	0.00	29.895 
20:50	79.9	79.9	81.1	54	61.7	0	0	---	0.00	29.895 
20:55	79.6	79.6	80.9	55	62.0	0	0	---	0.00	29.895 
21:00	79.0	79.0	80.4	56	61.9	0	0	---	0.00	29.903 
21:05	78.6	78.6	80.1	57	62.1	0	0	---	0.00	29.903 
21:10	78.3	78.3	79.9	58	62.3	0	0	---	0.00	29.903 
21:15	77.9	77.9	79.5	59	62.4	0	0	---	0.00	29.901 
21:20	77.6	77.6	79.3	60	62.6	0	0	---	0.00	29.901 
21:25	77.0	77.0	78.8	61	62.5	0	0	---	0.00	29.901 
21:30	76.7	76.7	78.5	61	62.2	0	0	---	0.00	29.910 
21:35	76.5	76.5	78.3	63	62.9	0	0	---	0.00	29.910 
21:40	76.1	76.1	78.0	63	62.6	0	0	---	0.00	29.910 
21:45	75.8	75.8	77.7	64	62.7	0	0	---	0.00	29.915 
21:50	75.4	75.4	77.4	65	62.8	0	0	---	0.00	29.915 
21:55	75.1	75.1	77.1	66	62.9	0	0	---	0.00	29.915 
22:00	74.7	74.7	74.7	68	63.4	0	0	---	0.00	29.926 
22:05	74.4	74.4	74.4	68	63.1	0	0	---	0.00	29.926 
22:10	74.2	74.2	74.2	69	63.4	0	0	---	0.00	29.926 
22:15	73.9	73.9	73.9	70	63.5	0	0	---	0.00	29.926 
22:20	73.7	73.7	73.7	70	63.3	0	0	---	0.00	29.926 
22:25	73.5	73.5	73.5	72	63.9	0	0	---	0.00	29.926 
22:30	73.3	73.3	73.3	72	63.7	0	0	---	0.00	29.928 
22:35	73.2	73.2	73.2	73	64.0	0	0	---	0.00	29.928 
22:40	73.0	73.0	73.0	73	63.8	0	0	---	0.00	29.928 
22:45	72.7	72.7	72.7	74	63.9	0	0	---	0.00	29.928 
22:50	72.5	72.5	72.5	74	63.7	0	0	---	0.00	29.928 
22:55	72.3	72.3	72.3	75	63.9	0	0	---	0.00	29.928 
23:00	72.1	72.1	72.1	76	64.1	0	0	---	0.00	29.926 
23:05	72.0	72.0	72.0	76	64.0	0	0	---	0.00	29.926 
23:10	71.8	71.8	71.8	77	64.2	0	0	---	0.00	29.926 
23:15	71.6	71.6	71.6	78	64.4	0	0	---	0.00	29.922 
23:20	71.6	71.6	71.6	79	64.7	0	0	---	0.00	29.922 
23:25	71.5	71.5	71.5	79	64.6	0	0	---	0.00	29.922 
23:30	71.3	71.3	71.3	79	64.4	0	0	---	0.00	29.921 
23:35	71.1	71.1	71.1	80	64.6	0	0	---	0.00	29.921 
23:40	70.9	70.9	70.9	81	64.8	0	0	---	0.00	29.921 
23:45	70.8	70.8	70.8	81	64.7	0	0	---	0.00	29.924 
23:50	70.8	70.8	70.8	81	64.7	0	0	---	0.00	29.924 
23:55	70.6	70.6	70.6	81	64.5	0	0	---	0.00	29.924 

CoCoRaHS
IN-AL-39
A2 Web Hosting
Creative Commons License
GoDaddy
search engine by freefind advanced

loaded 2018-11-16 10:46:52 • last modified 2010-11-18 10:43:29
Privacy PolicyDisclaimer
• wx.awcolley.com is powered by PmWiki v.2002016 •
• all content (unless otherwise noted) © 2018 A W Colley